sensor_id;sensor_type;location;lat;lon;timestamp;temperature;humidity
39695;DHT22;25367;-35.352;149.036;2023-12-14T06:58:27;26.70;53.60
39695;DHT22;25367;-35.352;149.036;2023-12-14T07:00:57;26.80;53.40
39695;DHT22;25367;-35.352;149.036;2023-12-14T07:03:27;27.00;53.10
39695;DHT22;25367;-35.352;149.036;2023-12-14T07:05:57;27.20;52.90
39695;DHT22;25367;-35.352;149.036;2023-12-14T07:08:26;27.40;52.80
39695;DHT22;25367;-35.352;149.036;2023-12-14T07:10:56;27.60;52.70
39695;DHT22;25367;-35.352;149.036;2023-12-14T07:13:27;27.70;52.50
39695;DHT22;25367;-35.352;149.036;2023-12-14T07:15:57;27.90;52.40
39695;DHT22;25367;-35.352;149.036;2023-12-14T07:18:26;27.90;52.20
39695;DHT22;25367;-35.352;149.036;2023-12-14T07:20:56;28.00;51.90
39695;DHT22;25367;-35.352;149.036;2023-12-14T07:23:25;28.10;52.10
39695;DHT22;25367;-35.352;149.036;2023-12-14T07:25:55;28.20;51.80
39695;DHT22;25367;-35.352;149.036;2023-12-14T07:28:26;28.30;51.60
39695;DHT22;25367;-35.352;149.036;2023-12-14T07:30:56;28.30;51.60
39695;DHT22;25367;-35.352;149.036;2023-12-14T07:33:25;28.40;51.60
39695;DHT22;25367;-35.352;149.036;2023-12-14T07:35:55;28.40;51.50
39695;DHT22;25367;-35.352;149.036;2023-12-14T07:38:24;28.40;51.50
39695;DHT22;25367;-35.352;149.036;2023-12-14T07:40:53;28.50;51.50
39695;DHT22;25367;-35.352;149.036;2023-12-14T07:43:23;28.50;51.40
39695;DHT22;25367;-35.352;149.036;2023-12-14T07:45:55;28.60;51.40
39695;DHT22;25367;-35.352;149.036;2023-12-14T07:48:24;28.60;51.40
39695;DHT22;25367;-35.352;149.036;2023-12-14T07:50:54;28.70;51.50
39695;DHT22;25367;-35.352;149.036;2023-12-14T07:53:23;28.70;51.40
39695;DHT22;25367;-35.352;149.036;2023-12-14T07:55:53;28.80;51.50
39695;DHT22;25367;-35.352;149.036;2023-12-14T07:58:22;28.80;51.50
39695;DHT22;25367;-35.352;149.036;2023-12-14T08:00:54;28.80;51.40
39695;DHT22;25367;-35.352;149.036;2023-12-14T08:03:23;28.80;51.40
39695;DHT22;25367;-35.352;149.036;2023-12-14T08:05:52;28.90;51.40
39695;DHT22;25367;-35.352;149.036;2023-12-14T08:08:22;28.90;51.40
39695;DHT22;25367;-35.352;149.036;2023-12-14T08:10:51;28.80;51.30
39695;DHT22;25367;-35.352;149.036;2023-12-14T08:13:21;28.90;51.40
39695;DHT22;25367;-35.352;149.036;2023-12-14T08:15:50;28.90;51.40
39695;DHT22;25367;-35.352;149.036;2023-12-14T08:18:22;28.90;51.40
39695;DHT22;25367;-35.352;149.036;2023-12-14T08:20:51;29.00;51.50
39695;DHT22;25367;-35.352;149.036;2023-12-14T08:23:21;29.00;51.50
39695;DHT22;25367;-35.352;149.036;2023-12-14T08:25:50;29.00;51.60
39695;DHT22;25367;-35.352;149.036;2023-12-14T08:28:19;29.00;51.60
39695;DHT22;25367;-35.352;149.036;2023-12-14T08:30:49;29.00;51.60
39695;DHT22;25367;-35.352;149.036;2023-12-14T08:33:20;29.00;51.60
39695;DHT22;25367;-35.352;149.036;2023-12-14T08:35:50;29.00;51.50
39695;DHT22;25367;-35.352;149.036;2023-12-14T08:38:20;29.00;51.60
39695;DHT22;25367;-35.352;149.036;2023-12-14T08:40:49;29.00;51.50
39695;DHT22;25367;-35.352;149.036;2023-12-14T08:43:18;29.00;52.10
39695;DHT22;25367;-35.352;149.036;2023-12-14T08:45:48;29.10;51.60
39695;DHT22;25367;-35.352;149.036;2023-12-14T08:48:17;29.10;51.50
39695;DHT22;25367;-35.352;149.036;2023-12-14T08:50:50;29.00;51.40
39695;DHT22;25367;-35.352;149.036;2023-12-14T08:53:22;29.10;51.50
39695;DHT22;25367;-35.352;149.036;2023-12-14T08:55:51;29.10;51.50
39695;DHT22;25367;-35.352;149.036;2023-12-14T08:58:21;29.10;51.40
39695;DHT22;25367;-35.352;149.036;2023-12-14T09:00:50;29.10;51.40
39695;DHT22;25367;-35.352;149.036;2023-12-14T09:03:20;29.10;51.50
39695;DHT22;25367;-35.352;149.036;2023-12-14T09:05:51;29.10;51.40
39695;DHT22;25367;-35.352;149.036;2023-12-14T09:08:21;29.10;51.40
39695;DHT22;25367;-35.352;149.036;2023-12-14T09:10:50;29.10;51.40
39695;DHT22;25367;-35.352;149.036;2023-12-14T09:13:20;29.20;51.30
39695;DHT22;25367;-35.352;149.036;2023-12-14T09:15:50;29.10;51.00
39695;DHT22;25367;-35.352;149.036;2023-12-14T09:18:19;29.10;50.80
39695;DHT22;25367;-35.352;149.036;2023-12-14T09:20:51;29.10;50.50
39695;DHT22;25367;-35.352;149.036;2023-12-14T09:23:21;29.10;50.50
39695;DHT22;25367;-35.352;149.036;2023-12-14T09:25:50;29.10;50.30
39695;DHT22;25367;-35.352;149.036;2023-12-14T09:28:19;29.10;50.20
39695;DHT22;25367;-35.352;149.036;2023-12-14T09:30:49;29.10;49.70
39695;DHT22;25367;-35.352;149.036;2023-12-14T09:33:18;29.10;49.60
39695;DHT22;25367;-35.352;149.036;2023-12-14T09:35:50;29.10;49.60
39695;DHT22;25367;-35.352;149.036;2023-12-14T09:38:20;29.00;49.20
39695;DHT22;25367;-35.352;149.036;2023-12-14T09:40:50;29.00;49.00
39695;DHT22;25367;-35.352;149.036;2023-12-14T09:43:19;29.00;48.90
39695;DHT22;25367;-35.352;149.036;2023-12-14T09:45:49;29.00;48.80
39695;DHT22;25367;-35.352;149.036;2023-12-14T09:48:19;29.00;48.60
39695;DHT22;25367;-35.352;149.036;2023-12-14T09:50:52;29.00;48.50
39695;DHT22;25367;-35.352;149.036;2023-12-14T09:53:22;29.00;48.30
39695;DHT22;25367;-35.352;149.036;2023-12-14T09:55:52;28.90;48.10
39695;DHT22;25367;-35.352;149.036;2023-12-14T09:58:22;28.90;47.90
39695;DHT22;25367;-35.352;149.036;2023-12-14T10:00:53;29.00;47.90
39695;DHT22;25367;-35.352;149.036;2023-12-14T10:03:24;28.90;47.60
39695;DHT22;25367;-35.352;149.036;2023-12-14T10:05:58;28.90;47.40
39695;DHT22;25367;-35.352;149.036;2023-12-14T10:08:29;28.90;47.60
39695;DHT22;25367;-35.352;149.036;2023-12-14T10:10:59;28.90;47.10
39695;DHT22;25367;-35.352;149.036;2023-12-14T10:13:38;28.90;47.30
39695;DHT22;25367;-35.352;149.036;2023-12-14T10:16:08;28.90;47.60
39695;DHT22;25367;-35.352;149.036;2023-12-14T10:18:38;28.90;47.00
39695;DHT22;25367;-35.352;149.036;2023-12-14T10:21:11;28.90;46.90
39695;DHT22;25367;-35.352;149.036;2023-12-14T10:23:39;28.90;47.10
39695;DHT22;25367;-35.352;149.036;2023-12-14T10:26:09;28.80;47.50
39695;DHT22;25367;-35.352;149.036;2023-12-14T10:28:40;28.80;46.90
39695;DHT22;25367;-35.352;149.036;2023-12-14T10:31:10;28.80;46.70
39695;DHT22;25367;-35.352;149.036;2023-12-14T10:33:40;28.80;46.70
39695;DHT22;25367;-35.352;149.036;2023-12-14T10:36:12;28.80;46.30
39695;DHT22;25367;-35.352;149.036;2023-12-14T10:38:44;28.80;46.20
39695;DHT22;25367;-35.352;149.036;2023-12-14T10:41:18;28.80;46.10
39695;DHT22;25367;-35.352;149.036;2023-12-14T10:43:52;28.80;45.90
39695;DHT22;25367;-35.352;149.036;2023-12-14T10:46:22;28.70;45.50
39695;DHT22;25367;-35.352;149.036;2023-12-14T10:48:52;28.70;45.40
39695;DHT22;25367;-35.352;149.036;2023-12-14T10:51:26;28.70;45.30
39695;DHT22;25367;-35.352;149.036;2023-12-14T10:53:57;28.70;45.30
39695;DHT22;25367;-35.352;149.036;2023-12-14T10:56:27;28.70;45.10
39695;DHT22;25367;-35.352;149.036;2023-12-14T10:58:57;28.70;45.00
39695;DHT22;25367;-35.352;149.036;2023-12-14T11:01:27;28.60;44.80
39695;DHT22;25367;-35.352;149.036;2023-12-14T11:03:58;28.60;44.90
39695;DHT22;25367;-35.352;149.036;2023-12-14T11:06:32;28.60;44.90
39695;DHT22;25367;-35.352;149.036;2023-12-14T11:09:04;28.60;45.00
39695;DHT22;25367;-35.352;149.036;2023-12-14T11:11:41;28.60;45.00
39695;DHT22;25367;-35.352;149.036;2023-12-14T11:14:12;28.50;45.20
39695;DHT22;25367;-35.352;149.036;2023-12-14T11:16:42;28.50;45.60
39695;DHT22;25367;-35.352;149.036;2023-12-14T22:18:22;22.80;50.80
39695;DHT22;25367;-35.352;149.036;2023-12-14T22:20:52;22.80;52.50
39695;DHT22;25367;-35.352;149.036;2023-12-14T22:23:21;23.00;52.70
39695;DHT22;25367;-35.352;149.036;2023-12-14T22:25:51;23.20;52.40
39695;DHT22;25367;-35.352;149.036;2023-12-14T22:28:20;23.30;52.00
39695;DHT22;25367;-35.352;149.036;2023-12-14T22:30:50;23.50;51.90
39695;DHT22;25367;-35.352;149.036;2023-12-14T22:33:21;23.60;51.80
39695;DHT22;25367;-35.352;149.036;2023-12-14T22:35:52;23.70;51.70
39695;DHT22;25367;-35.352;149.036;2023-12-14T22:38:21;23.80;51.70
39695;DHT22;25367;-35.352;149.036;2023-12-14T22:40:53;23.90;51.70
39695;DHT22;25367;-35.352;149.036;2023-12-14T22:43:23;24.00;51.60
39695;DHT22;25367;-35.352;149.036;2023-12-14T22:45:52;24.00;51.70
39695;DHT22;25367;-35.352;149.036;2023-12-14T22:48:24;24.10;51.60
39695;DHT22;25367;-35.352;149.036;2023-12-14T22:50:53;24.20;51.50
39695;DHT22;25367;-35.352;149.036;2023-12-14T22:53:22;24.30;51.40
39695;DHT22;25367;-35.352;149.036;2023-12-14T22:55:52;24.30;51.20
39695;DHT22;25367;-35.352;149.036;2023-12-14T22:58:21;24.30;51.20
39695;DHT22;25367;-35.352;149.036;2023-12-14T23:00:51;24.40;51.10
39695;DHT22;25367;-35.352;149.036;2023-12-14T23:03:22;24.50;51.00
39695;DHT22;25367;-35.352;149.036;2023-12-14T23:05:51;24.50;51.00
39695;DHT22;25367;-35.352;149.036;2023-12-14T23:08:21;24.50;51.00
39695;DHT22;25367;-35.352;149.036;2023-12-14T23:10:50;24.60;51.00
39695;DHT22;25367;-35.352;149.036;2023-12-14T23:13:20;24.60;50.90
39695;DHT22;25367;-35.352;149.036;2023-12-14T23:15:50;24.60;50.90
39695;DHT22;25367;-35.352;149.036;2023-12-14T23:18:19;24.70;50.90
39695;DHT22;25367;-35.352;149.036;2023-12-14T23:20:50;24.70;50.80
39695;DHT22;25367;-35.352;149.036;2023-12-14T23:23:20;24.70;50.80
39695;DHT22;25367;-35.352;149.036;2023-12-14T23:25:49;24.70;50.80
39695;DHT22;25367;-35.352;149.036;2023-12-14T23:28:19;24.80;50.80
39695;DHT22;25367;-35.352;149.036;2023-12-14T23:30:48;24.80;50.70
39695;DHT22;25367;-35.352;149.036;2023-12-14T23:33:18;24.90;50.80
39695;DHT22;25367;-35.352;149.036;2023-12-14T23:35:49;24.90;50.70
39695;DHT22;25367;-35.352;149.036;2023-12-14T23:38:19;24.90;50.70
39695;DHT22;25367;-35.352;149.036;2023-12-14T23:40:48;24.90;50.70
39695;DHT22;25367;-35.352;149.036;2023-12-14T23:43:18;24.90;50.60
39695;DHT22;25367;-35.352;149.036;2023-12-14T23:45:47;25.00;50.60
39695;DHT22;25367;-35.352;149.036;2023-12-14T23:48:17;25.00;50.60
39695;DHT22;25367;-35.352;149.036;2023-12-14T23:50:46;25.00;50.60
39695;DHT22;25367;-35.352;149.036;2023-12-14T23:53:17;25.00;50.70
39695;DHT22;25367;-35.352;149.036;2023-12-14T23:55:47;25.00;50.60
39695;DHT22;25367;-35.352;149.036;2023-12-14T23:58:17;25.10;50.90
